createdAt,value
2023-01-22T00:00:02.334Z,1.45
2023-01-22T00:01:02.172Z,1.47
2023-01-22T00:02:02.195Z,1.48
2023-01-22T00:03:02.155Z,1.47
2023-01-22T00:04:02.238Z,1.45
2023-01-22T00:05:02.133Z,1.47
2023-01-22T00:06:02.473Z,1.48
2023-01-22T00:07:02.113Z,1.48
2023-01-22T00:08:02.168Z,1.48
2023-01-22T00:09:02.083Z,1.50
2023-01-22T00:10:02.112Z,1.51
2023-01-22T00:11:02.083Z,1.52
2023-01-22T00:12:02.083Z,1.52
2023-01-22T00:13:02.070Z,1.52
2023-01-22T00:14:02.099Z,1.52
2023-01-22T00:15:02.033Z,1.54
2023-01-22T00:16:02.129Z,1.52
2023-01-22T00:17:01.994Z,1.52
2023-01-22T00:18:02.050Z,1.52
2023-01-22T00:19:02.001Z,1.55
2023-01-22T00:20:02.051Z,1.51
2023-01-22T00:21:01.968Z,1.50
2023-01-22T00:22:01.972Z,1.50
2023-01-22T00:23:01.962Z,1.50
2023-01-22T00:24:01.935Z,1.50
2023-01-22T00:25:01.913Z,1.52
2023-01-22T00:26:01.969Z,1.51
2023-01-22T00:27:01.908Z,1.52
2023-01-22T00:28:01.894Z,1.54
2023-01-22T00:29:01.875Z,1.54
2023-01-22T00:30:01.949Z,1.55
2023-01-22T00:31:01.986Z,1.55
2023-01-22T00:32:02.033Z,1.54
2023-01-22T00:33:01.912Z,1.55
2023-01-22T00:34:01.832Z,1.58
2023-01-22T00:35:01.829Z,1.55
2023-01-22T00:36:01.857Z,1.55
2023-01-22T00:37:01.784Z,1.58
2023-01-22T00:38:01.783Z,1.58
2023-01-22T00:39:01.792Z,1.58
2023-01-22T00:40:01.765Z,1.58
2023-01-22T00:41:01.804Z,1.58
2023-01-22T00:42:01.755Z,1.58
2023-01-22T00:43:01.829Z,1.59
2023-01-22T00:44:01.787Z,1.60
2023-01-22T00:45:01.698Z,1.63
2023-01-22T00:46:01.715Z,1.63
2023-01-22T00:47:01.674Z,1.63
2023-01-22T00:48:01.684Z,1.63
2023-01-22T00:49:01.654Z,1.65
2023-01-22T00:50:01.736Z,1.65
2023-01-22T00:51:01.693Z,1.65
2023-01-22T00:52:01.632Z,1.63
2023-01-22T00:53:01.621Z,1.63
2023-01-22T00:54:01.661Z,1.63
2023-01-22T00:55:01.592Z,1.62
2023-01-22T00:56:01.652Z,1.60
2023-01-22T00:57:01.578Z,1.60
2023-01-22T00:58:01.582Z,1.58
2023-01-22T00:59:01.564Z,1.54
2023-01-22T01:00:01.558Z,1.52
2023-01-22T01:01:01.620Z,1.51
2023-01-22T01:02:01.541Z,1.51
2023-01-22T01:03:01.547Z,1.48
2023-01-22T01:04:01.560Z,1.48
2023-01-22T01:05:01.501Z,1.47
2023-01-22T01:06:01.532Z,1.47
2023-01-22T01:07:01.471Z,1.47
2023-01-22T01:08:01.466Z,1.45
2023-01-22T01:09:01.462Z,1.44
2023-01-22T01:10:01.452Z,1.42
2023-01-22T01:11:01.455Z,1.41
2023-01-22T01:12:01.438Z,1.40
2023-01-22T01:13:01.404Z,1.40
2023-01-22T01:14:01.409Z,1.36
2023-01-22T01:15:01.391Z,1.36
2023-01-22T01:16:01.482Z,1.33
2023-01-22T01:17:01.372Z,1.34
2023-01-22T01:18:01.364Z,1.33
2023-01-22T01:19:01.343Z,1.33
2023-01-22T01:20:01.356Z,1.33
2023-01-22T01:21:01.351Z,1.29
2023-01-22T01:22:01.314Z,1.30
2023-01-22T01:23:01.358Z,1.29
2023-01-22T01:24:01.317Z,1.30
2023-01-22T01:25:01.335Z,1.29
2023-01-22T01:26:01.287Z,1.29
2023-01-22T01:27:01.271Z,1.27
2023-01-22T01:28:01.256Z,1.27
2023-01-22T01:29:01.237Z,1.27
2023-01-22T01:30:01.236Z,1.27
2023-01-22T01:31:01.332Z,1.27
2023-01-22T01:32:01.408Z,1.27
2023-01-22T01:33:01.194Z,1.27
2023-01-22T01:34:01.187Z,1.27
2023-01-22T01:35:01.216Z,1.29
2023-01-22T01:36:01.176Z,1.27
2023-01-22T01:37:01.147Z,1.29
2023-01-22T01:38:01.155Z,1.29
2023-01-22T01:39:01.135Z,1.29
2023-01-22T01:40:01.117Z,1.29
2023-01-22T01:41:01.145Z,1.30
2023-01-22T01:42:01.095Z,1.32
2023-01-22T01:43:01.091Z,1.29
2023-01-22T01:44:01.086Z,1.29
2023-01-22T01:45:01.076Z,1.29
2023-01-22T01:46:01.058Z,1.30
2023-01-22T01:47:01.051Z,1.29
2023-01-22T01:48:01.052Z,1.29
2023-01-22T01:49:01.046Z,1.26
2023-01-22T01:50:01.016Z,1.26
2023-01-22T01:51:01.046Z,1.26
2023-01-22T01:52:00.989Z,1.26
2023-01-22T01:53:00.996Z,1.26
2023-01-22T01:54:00.967Z,1.26
2023-01-22T01:55:00.964Z,1.24
2023-01-22T01:56:00.981Z,1.24
2023-01-22T01:57:00.951Z,1.26
2023-01-22T01:58:00.927Z,1.24
2023-01-22T01:59:00.934Z,1.26
2023-01-22T02:00:00.906Z,1.26
2023-01-22T02:01:00.963Z,1.24
2023-01-22T02:02:00.913Z,1.23
2023-01-22T02:03:00.876Z,1.23
2023-01-22T02:04:00.881Z,1.22
2023-01-22T02:05:00.862Z,1.22
2023-01-22T02:06:01.156Z,1.22
2023-01-22T02:07:00.850Z,1.22
2023-01-22T02:08:00.826Z,1.22
2023-01-22T02:09:00.815Z,1.22
2023-01-22T02:10:00.808Z,1.22
2023-01-22T02:11:00.809Z,1.23
2023-01-22T02:12:00.787Z,1.23
2023-01-22T02:13:00.768Z,1.20
2023-01-22T02:14:00.772Z,1.22
2023-01-22T02:15:00.749Z,1.23
2023-01-22T02:16:00.815Z,1.22
2023-01-22T02:17:00.737Z,1.20
2023-01-22T02:18:00.737Z,1.20
2023-01-22T02:19:00.717Z,1.20
2023-01-22T02:20:00.717Z,1.22
2023-01-22T02:21:00.709Z,1.20
2023-01-22T02:22:00.685Z,1.22
2023-01-22T02:23:00.669Z,1.22
2023-01-22T02:24:00.670Z,1.22
2023-01-22T02:25:00.658Z,1.20
2023-01-22T02:26:00.665Z,1.20
2023-01-22T02:27:00.642Z,1.18
2023-01-22T02:28:00.620Z,1.20
2023-01-22T02:29:00.605Z,1.20
2023-01-22T02:30:00.599Z,1.20
2023-01-22T02:31:00.607Z,1.20
2023-01-22T02:32:00.582Z,1.20
2023-01-22T02:33:00.561Z,1.22
2023-01-22T02:34:00.580Z,1.20
2023-01-22T02:35:00.565Z,1.20
2023-01-22T02:36:00.553Z,1.20
2023-01-22T02:37:00.526Z,1.20
2023-01-22T02:38:00.509Z,1.22
2023-01-22T02:39:00.498Z,1.20
2023-01-22T02:40:00.513Z,1.20
2023-01-22T02:41:00.498Z,1.20
2023-01-22T02:42:00.479Z,1.22
2023-01-22T02:43:00.482Z,1.18
2023-01-22T02:44:00.494Z,1.18
2023-01-22T02:45:00.444Z,1.18
2023-01-22T02:46:00.522Z,1.16
2023-01-22T02:47:00.411Z,1.16
2023-01-22T02:48:00.420Z,1.16
2023-01-22T02:49:00.401Z,1.16
2023-01-22T02:50:00.388Z,1.18
2023-01-22T02:51:00.449Z,1.15
2023-01-22T02:52:00.390Z,1.14
2023-01-22T02:53:00.352Z,1.14
2023-01-22T02:54:00.373Z,1.12
2023-01-22T02:55:00.337Z,1.12
2023-01-22T02:56:00.332Z,1.12
2023-01-22T02:57:00.317Z,1.14
2023-01-22T02:58:00.302Z,1.12
2023-01-22T02:59:00.293Z,1.12
2023-01-22T03:00:00.305Z,1.11
2023-01-22T03:01:00.320Z,1.11
2023-01-22T03:02:00.305Z,1.09
2023-01-22T03:03:00.240Z,1.11
2023-01-22T03:04:00.242Z,1.11
2023-01-22T03:05:00.241Z,1.09
2023-01-22T03:06:00.240Z,1.09
2023-01-22T03:07:00.217Z,1.08
2023-01-22T03:08:00.200Z,1.08
2023-01-22T03:09:00.188Z,1.08
2023-01-22T03:10:00.202Z,1.06
2023-01-22T03:11:00.191Z,1.05
2023-01-22T03:12:00.227Z,1.05
2023-01-22T03:13:00.160Z,1.05
2023-01-22T03:14:00.175Z,1.05
2023-01-22T03:15:00.345Z,1.05
2023-01-22T03:16:00.161Z,1.05
2023-01-22T03:17:00.154Z,1.05
2023-01-22T03:18:00.132Z,1.04
2023-01-22T03:19:00.121Z,1.04
2023-01-22T03:20:00.307Z,1.04
2023-01-22T03:21:00.097Z,1.04
2023-01-22T03:22:00.041Z,1.02
2023-01-22T03:23:00.030Z,1.04
2023-01-22T03:24:00.031Z,1.05
2023-01-22T03:25:00.106Z,1.04
2023-01-22T03:26:00.059Z,1.04
2023-01-22T03:26:59.990Z,1.04
2023-01-22T03:27:59.982Z,1.05
2023-01-22T03:28:59.982Z,1.06
2023-01-22T03:29:59.963Z,1.05
2023-01-22T03:31:00.021Z,1.02
2023-01-22T03:31:59.997Z,1.04
2023-01-22T03:32:59.950Z,1.05
2023-01-22T03:33:59.920Z,1.05
2023-01-22T03:34:59.901Z,1.05
2023-01-22T03:35:59.914Z,1.05
2023-01-22T03:36:59.897Z,1.08
2023-01-22T03:37:59.887Z,1.08
2023-01-22T03:38:59.867Z,1.08
2023-01-22T03:39:59.867Z,1.08
2023-01-22T03:40:59.892Z,1.06
2023-01-22T03:41:59.871Z,1.06
2023-01-22T03:42:59.842Z,1.06
2023-01-22T03:43:59.823Z,1.08
2023-01-22T03:44:59.801Z,1.08
2023-01-22T03:45:59.897Z,1.08
2023-01-22T03:46:59.781Z,1.09
2023-01-22T03:47:59.777Z,1.09
2023-01-22T03:48:59.761Z,1.11
2023-01-22T03:49:59.749Z,1.11
2023-01-22T03:50:59.827Z,1.12
2023-01-22T03:51:59.725Z,1.11
2023-01-22T03:52:59.713Z,1.14
2023-01-22T03:53:59.721Z,1.12
2023-01-22T03:54:59.732Z,1.14
2023-01-22T03:55:59.700Z,1.12
2023-01-22T03:56:59.682Z,1.11
2023-01-22T03:57:59.667Z,1.12
2023-01-22T03:58:59.653Z,1.14
2023-01-22T03:59:59.652Z,1.11
2023-01-22T04:00:59.667Z,1.12
2023-01-22T04:01:59.661Z,1.11
2023-01-22T04:02:59.611Z,1.14
2023-01-22T04:03:59.602Z,1.14
2023-01-22T04:04:59.593Z,1.12
2023-01-22T04:05:59.583Z,1.12
2023-01-22T04:06:59.573Z,1.14
2023-01-22T04:07:59.573Z,1.14
2023-01-22T04:08:59.549Z,1.14
2023-01-22T04:09:59.542Z,1.14
2023-01-22T04:10:59.543Z,1.14
2023-01-22T04:11:59.514Z,1.14
2023-01-22T04:12:59.551Z,1.14
2023-01-22T04:13:59.493Z,1.15
2023-01-22T04:14:59.492Z,1.14
2023-01-22T04:15:59.492Z,1.12
2023-01-22T04:16:59.473Z,1.14
2023-01-22T04:17:59.451Z,1.15
2023-01-22T04:18:59.444Z,1.12
2023-01-22T04:19:59.433Z,1.12
2023-01-22T04:20:59.463Z,1.14
2023-01-22T04:21:59.403Z,1.14
2023-01-22T04:22:59.407Z,1.14
2023-01-22T04:23:59.394Z,1.14
2023-01-22T04:24:59.383Z,1.12
2023-01-22T04:25:59.386Z,1.12
2023-01-22T04:26:59.381Z,1.12
2023-01-22T04:27:59.375Z,1.12
2023-01-22T04:28:59.374Z,1.11
2023-01-22T04:29:59.322Z,1.12
2023-01-22T04:30:59.380Z,1.12
2023-01-22T04:31:59.317Z,1.14
2023-01-22T04:32:59.285Z,1.14
2023-01-22T04:33:59.286Z,1.12
2023-01-22T04:34:59.283Z,1.11
2023-01-22T04:35:59.281Z,1.12
2023-01-22T04:36:59.254Z,1.14
2023-01-22T04:37:59.249Z,1.15
2023-01-22T04:38:59.236Z,1.15
2023-01-22T04:39:59.214Z,1.16
2023-01-22T04:40:59.221Z,1.18
2023-01-22T04:41:59.233Z,1.20
2023-01-22T04:42:59.184Z,1.20
2023-01-22T04:43:59.204Z,1.20
2023-01-22T04:44:59.164Z,1.20
2023-01-22T04:45:59.208Z,1.20
2023-01-22T04:46:59.159Z,1.20
2023-01-22T04:47:59.149Z,1.22
2023-01-22T04:48:59.122Z,1.23
2023-01-22T04:49:59.115Z,1.22
2023-01-22T04:50:59.238Z,1.22
2023-01-22T04:51:59.095Z,1.22
2023-01-22T04:52:59.077Z,1.20
2023-01-22T04:53:59.067Z,1.22
2023-01-22T04:54:59.055Z,1.20
2023-01-22T04:55:59.072Z,1.18
2023-01-22T04:56:59.034Z,1.20
2023-01-22T04:57:59.037Z,1.22
2023-01-22T04:58:59.025Z,1.23
2023-01-22T04:59:59.006Z,1.22
2023-01-22T05:00:59.085Z,1.23
2023-01-22T05:01:58.983Z,1.22
2023-01-22T05:02:58.990Z,1.22
2023-01-22T05:03:58.965Z,1.23
2023-01-22T05:04:58.963Z,1.23
2023-01-22T05:05:58.955Z,1.24
2023-01-22T05:06:58.938Z,1.24
2023-01-22T05:07:58.936Z,1.27
2023-01-22T05:08:58.905Z,1.26
2023-01-22T05:09:58.904Z,1.27
2023-01-22T05:10:58.906Z,1.27
2023-01-22T05:11:58.891Z,1.29
2023-01-22T05:12:58.865Z,1.29
2023-01-22T05:13:58.870Z,1.29
2023-01-22T05:14:58.855Z,1.29
2023-01-22T05:15:58.949Z,1.27
2023-01-22T05:16:58.832Z,1.29
2023-01-22T05:17:58.818Z,1.29
2023-01-22T05:18:58.796Z,1.26
2023-01-22T05:19:58.810Z,1.26
2023-01-22T05:20:58.799Z,1.26
2023-01-22T05:21:58.801Z,1.24
2023-01-22T05:22:58.764Z,1.26
2023-01-22T05:23:58.758Z,1.27
2023-01-22T05:24:58.752Z,1.26
2023-01-22T05:25:58.765Z,1.26
2023-01-22T05:26:58.714Z,1.26
2023-01-22T05:27:58.731Z,1.26
2023-01-22T05:28:58.699Z,1.27
2023-01-22T05:29:58.705Z,1.27
2023-01-22T05:30:58.816Z,1.27
2023-01-22T05:31:58.676Z,1.29
2023-01-22T05:32:58.657Z,1.29
2023-01-22T05:33:58.673Z,1.30
2023-01-22T05:34:58.676Z,1.32
2023-01-22T05:35:58.684Z,1.33
2023-01-22T05:36:58.665Z,1.32
2023-01-22T05:37:58.621Z,1.33
2023-01-22T05:38:58.587Z,1.33
2023-01-22T05:39:58.609Z,1.34
2023-01-22T05:40:58.576Z,1.36
2023-01-22T05:41:58.569Z,1.34
2023-01-22T05:42:58.549Z,1.36
2023-01-22T05:43:58.547Z,1.34
2023-01-22T05:44:58.528Z,1.33
2023-01-22T05:45:58.543Z,1.34
2023-01-22T05:46:58.506Z,1.33
2023-01-22T05:47:58.508Z,1.32
2023-01-22T05:48:58.485Z,1.33
2023-01-22T05:49:58.481Z,1.33
2023-01-22T05:50:58.533Z,1.33
2023-01-22T05:51:58.476Z,1.33
2023-01-22T05:52:58.437Z,1.30
2023-01-22T05:53:58.435Z,1.32
2023-01-22T05:54:58.416Z,1.29
2023-01-22T05:55:58.438Z,1.30
2023-01-22T05:56:58.409Z,1.30
2023-01-22T05:57:58.387Z,1.30
2023-01-22T05:58:58.387Z,1.32
2023-01-22T05:59:58.376Z,1.32
2023-01-22T06:00:58.377Z,1.33
2023-01-22T06:01:58.352Z,1.32
2023-01-22T06:02:58.401Z,1.30
2023-01-22T06:03:58.371Z,1.33
2023-01-22T06:04:58.363Z,1.30
2023-01-22T06:05:58.330Z,1.32
2023-01-22T06:06:58.290Z,1.32
2023-01-22T06:07:58.288Z,1.32
2023-01-22T06:08:58.287Z,1.30
2023-01-22T06:09:58.275Z,1.29
2023-01-22T06:10:58.269Z,1.30
2023-01-22T06:11:58.261Z,1.29
2023-01-22T06:12:58.228Z,1.29
2023-01-22T06:13:58.237Z,1.29
2023-01-22T06:14:58.225Z,1.27
2023-01-22T06:15:58.245Z,1.27
2023-01-22T06:16:58.188Z,1.26
2023-01-22T06:17:58.179Z,1.26
2023-01-22T06:18:58.171Z,1.26
2023-01-22T06:19:58.158Z,1.27
2023-01-22T06:20:58.159Z,1.26
2023-01-22T06:21:58.141Z,1.27
2023-01-22T06:22:58.125Z,1.27
2023-01-22T06:23:58.131Z,1.29
2023-01-22T06:24:58.107Z,1.30
2023-01-22T06:25:58.120Z,1.32
2023-01-22T06:26:58.114Z,1.30
2023-01-22T06:27:58.078Z,1.32
2023-01-22T06:28:58.058Z,1.32
2023-01-22T06:29:58.093Z,1.33
2023-01-22T06:30:58.188Z,1.33
2023-01-22T06:31:58.112Z,1.33
2023-01-22T06:32:58.021Z,1.32
2023-01-22T06:33:58.040Z,1.32
2023-01-22T06:34:58.001Z,1.32
2023-01-22T06:35:57.999Z,1.33
2023-01-22T06:36:57.991Z,1.32
2023-01-22T06:37:57.973Z,1.33
2023-01-22T06:38:57.969Z,1.32
2023-01-22T06:39:57.949Z,1.30
2023-01-22T06:40:57.952Z,1.32
2023-01-22T06:41:57.944Z,1.30
2023-01-22T06:42:57.907Z,1.32
2023-01-22T06:43:57.909Z,1.30
2023-01-22T06:44:57.900Z,1.33
2023-01-22T06:45:57.896Z,1.33
2023-01-22T06:46:57.869Z,1.32
2023-01-22T06:47:57.884Z,1.32
2023-01-22T06:48:57.850Z,1.33
2023-01-22T06:49:57.877Z,1.32
2023-01-22T06:50:57.925Z,1.33
2023-01-22T06:51:57.832Z,1.36
2023-01-22T06:52:57.811Z,1.37
2023-01-22T06:53:57.811Z,1.37
2023-01-22T06:54:57.780Z,1.37
2023-01-22T06:55:57.801Z,1.37
2023-01-22T06:56:57.761Z,1.40
2023-01-22T06:57:57.759Z,1.37
2023-01-22T06:58:57.749Z,1.37
2023-01-22T06:59:57.741Z,1.37
2023-01-22T07:00:57.735Z,1.37
2023-01-22T07:01:57.759Z,1.36
2023-01-22T07:02:57.708Z,1.36
2023-01-22T07:03:57.754Z,1.37
2023-01-22T07:04:57.696Z,1.36
2023-01-22T07:05:57.681Z,1.37
2023-01-22T07:06:57.668Z,1.36
2023-01-22T07:07:57.666Z,1.37
2023-01-22T07:08:57.645Z,1.34
2023-01-22T07:09:57.632Z,1.36
2023-01-22T07:10:57.645Z,1.34
2023-01-22T07:11:57.614Z,1.33
2023-01-22T07:12:57.701Z,1.33
2023-01-22T07:13:57.630Z,1.33
2023-01-22T07:14:57.582Z,1.36
2023-01-22T07:15:57.610Z,1.34
2023-01-22T07:16:57.561Z,1.36
2023-01-22T07:17:57.568Z,1.36
2023-01-22T07:18:57.537Z,1.37
2023-01-22T07:19:57.558Z,1.37
2023-01-22T07:20:57.557Z,1.36
2023-01-22T07:21:57.502Z,1.34
2023-01-22T07:22:59.104Z,1.36
2023-01-22T07:23:57.501Z,1.34
2023-01-22T07:24:57.462Z,1.36
2023-01-22T07:25:57.485Z,1.34
2023-01-22T07:26:57.476Z,1.34
2023-01-22T07:27:57.444Z,1.33
2023-01-22T07:28:57.422Z,1.36
2023-01-22T07:29:57.449Z,1.34
2023-01-22T07:30:57.553Z,1.34
2023-01-22T07:31:57.493Z,1.36
2023-01-22T07:32:57.451Z,1.36
2023-01-22T07:33:57.378Z,1.34
2023-01-22T07:34:57.365Z,1.36
2023-01-22T07:35:57.367Z,1.37
2023-01-22T07:36:57.383Z,1.40
2023-01-22T07:37:57.343Z,1.40
2023-01-22T07:38:57.348Z,1.40
2023-01-22T07:39:57.311Z,1.40
2023-01-22T07:40:57.343Z,1.40
2023-01-22T07:41:57.345Z,1.40
2023-01-22T07:42:57.283Z,1.37
2023-01-22T07:43:57.274Z,1.37
2023-01-22T07:44:57.263Z,1.37
2023-01-22T07:45:57.284Z,1.36
2023-01-22T07:46:57.253Z,1.36
2023-01-22T07:47:57.236Z,1.40
2023-01-22T07:48:57.225Z,1.37
2023-01-22T07:49:57.204Z,1.36
2023-01-22T07:50:57.257Z,1.36
2023-01-22T07:51:57.186Z,1.36
2023-01-22T07:52:57.181Z,1.33
2023-01-22T07:53:57.165Z,1.33
2023-01-22T07:54:57.154Z,1.33
2023-01-22T07:55:57.170Z,1.32
2023-01-22T07:56:57.139Z,1.32
2023-01-22T07:57:57.115Z,1.32
2023-01-22T07:58:57.123Z,1.32
2023-01-22T07:59:57.106Z,1.34
2023-01-22T08:00:57.174Z,1.32
2023-01-22T08:01:57.146Z,1.33
2023-01-22T08:02:57.076Z,1.34
2023-01-22T08:03:57.066Z,1.34
2023-01-22T08:04:57.054Z,1.33
2023-01-22T08:05:57.097Z,1.34
2023-01-22T08:06:57.037Z,1.33
2023-01-22T08:07:57.016Z,1.33
2023-01-22T08:08:57.015Z,1.33
2023-01-22T08:09:56.995Z,1.32
2023-01-22T08:10:57.015Z,1.33
2023-01-22T08:11:56.975Z,1.33
2023-01-22T08:12:56.974Z,1.36
2023-01-22T08:13:56.954Z,1.34
2023-01-22T08:14:56.942Z,1.34
2023-01-22T08:15:57.009Z,1.34
2023-01-22T08:16:56.914Z,1.36
2023-01-22T08:17:56.923Z,1.36
2023-01-22T08:18:56.893Z,1.33
2023-01-22T08:19:56.895Z,1.34
2023-01-22T08:20:56.937Z,1.34
2023-01-22T08:21:56.864Z,1.34
2023-01-22T08:22:56.853Z,1.37
2023-01-22T08:23:56.870Z,1.34
2023-01-22T08:24:56.833Z,1.34
2023-01-22T08:25:56.855Z,1.37
2023-01-22T08:26:56.816Z,1.36
2023-01-22T08:27:56.832Z,1.40
2023-01-22T08:28:56.784Z,1.40
2023-01-22T08:29:56.797Z,1.40
2023-01-22T08:30:56.805Z,1.41
2023-01-22T08:31:56.892Z,1.41
2023-01-22T08:32:56.761Z,1.42
2023-01-22T08:33:56.748Z,1.42
2023-01-22T08:34:56.763Z,1.44
2023-01-22T08:35:56.741Z,1.42
2023-01-22T08:36:56.704Z,1.44
2023-01-22T08:37:56.706Z,1.44
2023-01-22T08:38:56.692Z,1.42
2023-01-22T08:39:56.698Z,1.42
2023-01-22T08:40:56.690Z,1.41
2023-01-22T08:41:56.671Z,1.41
2023-01-22T08:42:56.649Z,1.42
2023-01-22T08:43:56.636Z,1.42
2023-01-22T08:44:56.624Z,1.41
2023-01-22T08:45:56.669Z,1.42
2023-01-22T08:46:56.607Z,1.41
2023-01-22T08:47:56.602Z,1.42
2023-01-22T08:48:56.597Z,1.44
2023-01-22T08:49:56.574Z,1.44
2023-01-22T08:50:56.615Z,1.44
2023-01-22T08:51:56.566Z,1.44
2023-01-22T08:52:56.556Z,1.45
2023-01-22T08:53:56.526Z,1.47
2023-01-22T08:54:56.505Z,1.47
2023-01-22T08:55:56.527Z,1.48
2023-01-22T08:56:56.502Z,1.48
2023-01-22T08:57:56.544Z,1.50
2023-01-22T08:58:56.495Z,1.52
2023-01-22T09:00:01.368Z,1.51
2023-01-22T09:00:57.516Z,1.52
2023-01-22T09:01:56.457Z,1.54
2023-01-22T09:02:56.432Z,1.54
2023-01-22T09:03:56.536Z,1.58
2023-01-22T09:04:56.437Z,1.58
2023-01-22T09:05:56.468Z,1.55
2023-01-22T09:06:56.418Z,1.60
2023-01-22T09:07:56.414Z,1.60
2023-01-22T09:08:56.369Z,1.62
2023-01-22T09:09:56.363Z,1.60
2023-01-22T09:10:56.358Z,1.62
2023-01-22T09:11:56.356Z,1.60
2023-01-22T09:12:56.316Z,1.63
2023-01-22T09:13:56.317Z,1.63
2023-01-22T09:14:56.327Z,1.65
2023-01-22T09:15:58.449Z,1.65
2023-01-22T09:16:56.298Z,1.66
2023-01-22T09:17:56.276Z,1.66
2023-01-22T09:18:56.263Z,1.66
2023-01-22T09:19:56.256Z,1.68
2023-01-22T09:20:56.246Z,1.68
2023-01-22T09:21:56.245Z,1.68
2023-01-22T09:22:56.217Z,1.68
2023-01-22T09:23:56.220Z,1.70
2023-01-22T09:24:56.197Z,1.70
2023-01-22T09:25:56.208Z,1.70
2023-01-22T09:26:56.177Z,1.72
2023-01-22T09:27:56.166Z,1.73
2023-01-22T09:28:56.251Z,1.72
2023-01-22T09:29:56.147Z,1.77
2023-01-22T09:30:56.203Z,1.77
2023-01-22T09:31:56.177Z,1.79
2023-01-22T09:32:56.168Z,1.80
2023-01-22T09:33:56.113Z,1.79
2023-01-22T09:34:56.111Z,1.81
2023-01-22T09:35:56.088Z,1.83
2023-01-22T09:36:56.063Z,1.84
2023-01-22T09:37:56.057Z,1.87
2023-01-22T09:38:56.161Z,1.86
2023-01-22T09:39:56.037Z,1.86
2023-01-22T09:40:56.029Z,1.87
2023-01-22T09:41:56.037Z,1.88
2023-01-22T09:42:56.000Z,1.90
2023-01-22T09:43:55.996Z,1.88
2023-01-22T09:44:55.998Z,1.90
2023-01-22T09:45:55.994Z,1.90
2023-01-22T09:46:55.962Z,1.88
2023-01-22T09:47:55.961Z,1.90
2023-01-22T09:48:55.940Z,1.88
2023-01-22T09:49:55.929Z,1.88
2023-01-22T09:50:55.951Z,1.88
2023-01-22T09:51:55.898Z,1.90
2023-01-22T09:52:55.890Z,1.90
2023-01-22T09:53:55.905Z,1.91
2023-01-22T09:54:55.876Z,1.93
2023-01-22T09:55:55.880Z,1.91
2023-01-22T09:56:55.852Z,1.93
2023-01-22T09:57:55.849Z,1.98
2023-01-22T09:58:55.829Z,1.95
2023-01-22T09:59:55.823Z,1.98
2023-01-22T10:00:55.878Z,1.99
2023-01-22T10:01:55.799Z,2.00
2023-01-22T10:02:55.779Z,2.00
2023-01-22T10:03:55.768Z,2.03
2023-01-22T10:04:55.821Z,2.03
2023-01-22T10:05:55.767Z,2.06
2023-01-22T10:06:55.729Z,2.05
2023-01-22T10:07:55.771Z,2.06
2023-01-22T10:08:55.742Z,2.06
2023-01-22T10:09:55.721Z,2.05
2023-01-22T10:10:55.707Z,2.06
2023-01-22T10:11:55.687Z,2.05
2023-01-22T10:12:55.661Z,2.03
2023-01-22T10:13:55.660Z,2.05
2023-01-22T10:14:55.689Z,2.05
2023-01-22T10:15:55.652Z,2.03
2023-01-22T10:16:55.673Z,2.03
2023-01-22T10:17:55.626Z,2.02
2023-01-22T10:18:56.917Z,2.06
2023-01-22T10:19:55.604Z,2.05
2023-01-22T10:20:55.637Z,2.03
2023-01-22T10:21:55.601Z,2.06
2023-01-22T10:22:55.619Z,2.03
2023-01-22T10:23:55.553Z,2.03
2023-01-22T10:24:55.546Z,2.05
2023-01-22T10:25:55.548Z,2.03
2023-01-22T10:26:55.529Z,2.06
2023-01-22T10:27:55.512Z,2.06
2023-01-22T10:28:55.504Z,2.06
2023-01-22T10:29:55.522Z,2.06
2023-01-22T10:30:55.600Z,2.09
2023-01-22T10:31:55.595Z,2.07
2023-01-22T10:32:55.451Z,2.09
2023-01-22T10:33:55.433Z,2.07
2023-01-22T10:34:55.438Z,2.06
2023-01-22T10:35:55.433Z,2.06
2023-01-22T10:36:55.410Z,2.05
2023-01-22T10:37:55.402Z,2.05
2023-01-22T10:38:55.394Z,2.03
2023-01-22T10:39:55.387Z,2.03
2023-01-22T10:40:55.394Z,2.06
2023-01-22T10:41:55.353Z,2.07
2023-01-22T10:42:55.342Z,2.09
2023-01-22T10:43:55.336Z,2.09
2023-01-22T10:44:55.332Z,2.07
2023-01-22T10:45:55.419Z,2.09
2023-01-22T10:46:55.302Z,2.10
2023-01-22T10:47:55.291Z,2.10
2023-01-22T10:48:55.275Z,2.12
2023-01-22T10:49:55.275Z,2.12
2023-01-22T10:50:55.300Z,2.16
2023-01-22T10:51:55.255Z,2.14
2023-01-22T10:52:55.243Z,2.14
2023-01-22T10:53:55.237Z,2.16
2023-01-22T10:54:55.226Z,2.16
2023-01-22T10:55:55.222Z,2.16
2023-01-22T10:56:55.193Z,2.17
2023-01-22T10:57:55.196Z,2.18
2023-01-22T10:58:55.175Z,2.21
2023-01-22T10:59:55.178Z,2.24
2023-01-22T11:00:55.174Z,2.24
2023-01-22T11:01:55.136Z,2.27
2023-01-22T11:02:55.145Z,2.25
2023-01-22T11:03:55.130Z,2.27
2023-01-22T11:04:55.122Z,2.24
2023-01-22T11:05:55.119Z,2.24
2023-01-22T11:06:55.104Z,2.27
2023-01-22T11:07:55.070Z,2.27
2023-01-22T11:08:55.066Z,2.28
2023-01-22T11:09:55.041Z,2.30
2023-01-22T11:10:55.060Z,2.31
2023-01-22T11:11:55.030Z,2.31
2023-01-22T11:12:55.029Z,2.35
2023-01-22T11:13:55.031Z,2.31
2023-01-22T11:14:55.094Z,2.34
2023-01-22T11:15:55.100Z,2.34
2023-01-22T11:16:54.975Z,2.31
2023-01-22T11:17:54.969Z,2.34
2023-01-22T11:18:54.947Z,2.34
2023-01-22T11:19:54.963Z,2.31
2023-01-22T11:20:54.950Z,2.31
2023-01-22T11:21:54.925Z,2.31
2023-01-22T11:22:54.977Z,2.30
2023-01-22T11:23:54.915Z,2.28
2023-01-22T11:24:54.890Z,2.30
2023-01-22T11:25:54.909Z,2.31
2023-01-22T11:26:54.877Z,2.34
2023-01-22T11:27:54.847Z,2.31
2023-01-22T11:28:54.849Z,2.30
2023-01-22T11:29:54.843Z,2.27
2023-01-22T11:30:54.931Z,2.24
2023-01-22T11:31:54.863Z,2.23
2023-01-22T11:32:54.803Z,2.20
2023-01-22T11:33:54.778Z,2.17
2023-01-22T11:34:54.778Z,2.16
2023-01-22T11:35:54.797Z,2.14
2023-01-22T11:36:54.763Z,2.14
2023-01-22T11:37:54.742Z,2.12
2023-01-22T11:38:54.738Z,2.10
2023-01-22T11:39:54.717Z,2.12
2023-01-22T11:40:54.733Z,2.12
2023-01-22T11:41:54.698Z,2.12
2023-01-22T11:42:54.689Z,2.07
2023-01-22T11:43:54.678Z,2.09
2023-01-22T11:44:54.669Z,2.09
2023-01-22T11:45:54.715Z,2.10
2023-01-22T11:46:54.677Z,2.10
2023-01-22T11:47:54.629Z,2.10
2023-01-22T11:48:54.620Z,2.09
2023-01-22T11:49:54.617Z,2.10
2023-01-22T11:50:54.667Z,2.12
2023-01-22T11:51:54.597Z,2.09
2023-01-22T11:52:54.606Z,2.09
2023-01-22T11:53:54.567Z,2.09
2023-01-22T11:54:54.558Z,2.09
2023-01-22T11:55:54.578Z,2.07
2023-01-22T11:56:54.586Z,2.05
2023-01-22T11:57:54.519Z,2.07
2023-01-22T11:58:54.519Z,2.07
2023-01-22T11:59:54.499Z,2.06
2023-01-22T12:00:54.509Z,2.07
2023-01-22T12:01:54.483Z,2.09
2023-01-22T12:02:54.548Z,2.07
2023-01-22T12:03:54.500Z,2.09
2023-01-22T12:04:54.519Z,2.10
2023-01-22T12:05:54.485Z,2.12
2023-01-22T12:06:54.441Z,2.14
2023-01-22T12:07:54.429Z,2.12
2023-01-22T12:08:54.415Z,2.14
2023-01-22T12:09:54.413Z,2.12
2023-01-22T12:10:55.077Z,2.10
2023-01-22T12:11:54.413Z,2.12
2023-01-22T12:12:54.387Z,2.12
2023-01-22T12:13:54.371Z,2.12
2023-01-22T12:14:54.348Z,2.12
2023-01-22T12:15:54.375Z,2.10
2023-01-22T12:16:54.321Z,2.10
2023-01-22T12:17:54.333Z,2.10
2023-01-22T12:18:54.292Z,2.09
2023-01-22T12:19:54.280Z,2.07
2023-01-22T12:20:54.280Z,2.07
2023-01-22T12:21:54.260Z,2.07
2023-01-22T12:22:54.252Z,2.09
2023-01-22T12:23:54.243Z,2.10
2023-01-22T12:24:54.231Z,2.06
2023-01-22T12:25:54.271Z,2.05
2023-01-22T12:26:54.201Z,2.06
2023-01-22T12:27:54.192Z,2.06
2023-01-22T12:28:54.203Z,2.07
2023-01-22T12:29:54.186Z,2.07
2023-01-22T12:30:54.320Z,2.07
2023-01-22T12:31:54.240Z,2.07
2023-01-22T12:32:54.135Z,2.07
2023-01-22T12:33:54.138Z,2.07
2023-01-22T12:34:54.148Z,2.07
2023-01-22T12:35:54.132Z,2.10
2023-01-22T12:36:54.102Z,2.09
2023-01-22T12:37:54.112Z,2.10
2023-01-22T12:38:54.080Z,2.10
2023-01-22T12:39:54.069Z,2.10
2023-01-22T12:40:54.052Z,2.10
2023-01-22T12:41:54.057Z,2.10
2023-01-22T12:42:54.182Z,2.10
2023-01-22T12:43:54.108Z,2.09
2023-01-22T12:44:54.064Z,2.09
2023-01-22T12:45:53.995Z,2.07
2023-01-22T12:46:54.075Z,2.07
2023-01-22T12:47:53.992Z,2.05
2023-01-22T12:48:53.954Z,2.06
2023-01-22T12:49:53.955Z,2.09
2023-01-22T12:50:54.012Z,2.14
2023-01-22T12:51:53.936Z,2.18
2023-01-22T12:52:53.923Z,2.21
2023-01-22T12:53:53.913Z,2.21
2023-01-22T12:54:53.898Z,2.25
2023-01-22T12:55:53.922Z,2.27
2023-01-22T12:56:53.876Z,2.27
2023-01-22T12:57:53.874Z,2.28
2023-01-22T12:58:53.855Z,2.31
2023-01-22T12:59:53.843Z,2.31
2023-01-22T13:00:53.850Z,2.30
2023-01-22T13:01:56.189Z,2.34
2023-01-22T13:02:53.824Z,2.31
2023-01-22T13:03:53.793Z,2.35
2023-01-22T13:04:53.799Z,2.35
2023-01-22T13:05:53.785Z,2.39
2023-01-22T13:06:53.766Z,2.41
2023-01-22T13:07:53.756Z,2.41
2023-01-22T13:08:53.751Z,2.41
2023-01-22T13:09:53.735Z,2.42
2023-01-22T13:10:53.744Z,2.46
2023-01-22T13:11:53.714Z,2.46
2023-01-22T13:12:53.698Z,2.46
2023-01-22T13:13:55.201Z,2.45
2023-01-22T13:14:53.687Z,2.46
2023-01-22T13:15:53.699Z,2.45
2023-01-22T13:16:53.664Z,2.45
2023-01-22T13:18:06.165Z,2.46